KSAN/SAN METAR and TAF weather

Enter ICAO airport designator
Station Type Date Time Source
KSAN METAR 2019/08/25 02:51 UTC NOAA

KSAN 250251Z 31003KT 10SM FEW011 22/18 A2995 RMK AO2 SLP143 T02170183 51007


Station Type Date Time Source
KSAN Decoded METAR 2019/08/25 02:51 UTC NOAA

Station name not available
Aug 24, 2019 - 10:51 PM EDT / 2019.08.25 0251 UTC
Wind: from the NW (310 degrees) at 3 MPH (3 KT):0
Visibility: 10 mile(s):0
Sky conditions: mostly clear
Temperature: 71.1 F (21.7 C)
Dew Point: 64.9 F (18.3 C)
Relative Humidity: 81%
Pressure (altimeter): 29.95 in. Hg (1014 hPa)
Pressure tendency: 0.02 inches (0.7 hPa) higher than three hours ago
ob: KSAN 250251Z 31003KT 10SM FEW011 22/18 A2995 RMK AO2 SLP143 T02170183 51007
cycle: 3

Station Type Date Time Source
KSAN TAF 2019/08/25 03:54 UTC NOAA

TAF
AMD KSAN 250253Z 2503/2606 VRB05KT P6SM SCT011
FM250700 VRB03KT P6SM BKN009
FM251600 VRB04KT P6SM SCT010
FM251900 28009KT P6SM FEW010
FM260200 VRB05KT P6SM FEW007

Example: see airport list